Time;durP1;ratioP1;P1;durP2;ratioP2;P2;SDS_P1;SDS_P2;PMS_P1;PMS_P2;Temp;Humidity;BMP_temperature;BMP_pressure;BME280_temperature;BME280_humidity;BME280_pressure;Samples;Min_cycle;Max_cycle;Signal;HPM_P1;HPM_P2
2022/11/16 00:01:29;;;;;;;14.27;9.68;;;11.40;99.90;;;;;;5090998;28;20036;-66
2022/11/16 00:03:57;;;;;;;15.50;10.48;;;11.40;99.90;;;;;;5092257;28;20032;-66
2022/11/16 00:06:23;;;;;;;14.32;10.05;;;11.40;99.90;;;;;;5075983;28;20040;-67
2022/11/16 00:11:38;;;;;;;12.63;9.63;;;11.30;99.90;;;;;;5070939;28;20123;-66
2022/11/16 00:14:04;;;;;;;14.85;10.13;;;11.30;99.90;;;;;;5072769;28;20040;-67
2022/11/16 00:16:30;;;;;;;16.33;10.75;;;11.40;99.90;;;;;;5077709;28;20043;-67
2022/11/16 00:18:58;;;;;;;15.80;10.73;;;11.30;99.90;;;;;;5091071;28;20039;-67
2022/11/16 00:21:24;;;;;;;15.13;10.95;;;11.30;99.90;;;;;;5088481;28;20036;-67
2022/11/16 00:23:50;;;;;;;15.05;10.35;;;11.40;99.90;;;;;;5072210;28;20037;-67
2022/11/16 00:26:16;;;;;;;17.75;11.25;;;11.40;99.90;;;;;;5090565;28;20029;-67
2022/11/16 00:28:42;;;;;;;14.43;10.48;;;11.40;99.90;;;;;;5091502;28;20058;-66
2022/11/16 00:31:09;;;;;;;16.90;11.00;;;11.40;99.90;;;;;;5077154;28;20040;-67
2022/11/16 00:33:35;;;;;;;15.75;11.40;;;11.40;99.90;;;;;;5075483;28;20516;-67
2022/11/16 00:36:02;;;;;;;14.70;10.73;;;11.40;99.90;;;;;;5091187;28;20047;-67
2022/11/16 00:38:28;;;;;;;14.07;10.82;;;11.40;99.90;;;;;;5082320;28;20103;-66
2022/11/16 00:40:53;;;;;;;14.00;10.65;;;11.40;99.90;;;;;;5085248;28;20578;-67
2022/11/16 00:43:19;;;;;;;15.13;10.32;;;11.40;99.90;;;;;;5091060;28;20036;-67
2022/11/16 00:45:45;;;;;;;15.55;11.18;;;11.40;99.90;;;;;;5086969;28;20040;-67
2022/11/16 00:48:11;;;;;;;15.13;10.30;;;11.40;99.90;;;;;;5079702;28;20047;-67
2022/11/16 00:50:37;;;;;;;15.02;10.95;;;11.40;99.90;;;;;;5081290;28;20055;-67
2022/11/16 00:53:03;;;;;;;16.75;11.40;;;11.40;99.90;;;;;;5090414;28;20040;-67
2022/11/16 00:55:29;;;;;;;17.08;11.50;;;11.40;99.90;;;;;;5083890;28;20454;-67
2022/11/16 00:57:54;;;;;;;14.70;10.70;;;11.50;99.90;;;;;;5081860;28;20082;-67
2022/11/16 01:00:20;;;;;;;15.15;10.52;;;11.40;99.90;;;;;;5090800;28;20042;-67
2022/11/16 01:02:45;;;;;;;16.25;10.80;;;11.50;99.90;;;;;;5093326;28;20043;-66
2022/11/16 01:05:12;;;;;;;16.20;10.48;;;11.50;99.90;;;;;;5082916;28;20131;-67
2022/11/16 01:07:38;;;;;;;15.55;10.70;;;11.40;99.90;;;;;;5088764;28;20078;-67
2022/11/16 01:10:08;;;;;;;15.18;10.55;;;11.50;99.90;;;;;;5091711;28;20043;-67
2022/11/16 01:12:34;;;;;;;16.02;10.55;;;11.50;99.90;;;;;;5083397;28;20578;-67
2022/11/16 01:15:00;;;;;;;17.02;10.82;;;11.50;99.90;;;;;;5091626;28;20543;-67
2022/11/16 01:17:25;;;;;;;14.73;10.63;;;11.50;99.90;;;;;;5094317;28;20032;-67
2022/11/16 01:19:51;;;;;;;16.52;10.10;;;11.50;99.90;;;;;;5094694;28;20081;-65
2022/11/16 01:22:17;;;;;;;17.70;10.68;;;11.50;99.90;;;;;;5079455;28;20047;-66
2022/11/16 01:24:45;;;;;;;15.05;9.93;;;11.50;99.90;;;;;;5094045;28;20119;-67
2022/11/16 01:27:11;;;;;;;15.57;10.48;;;11.50;99.90;;;;;;5094517;28;20055;-67
2022/11/16 01:29:36;;;;;;;15.32;10.32;;;11.50;99.90;;;;;;5082183;28;20032;-67
2022/11/16 01:32:02;;;;;;;16.20;10.40;;;11.50;99.90;;;;;;5093362;28;20146;-67
2022/11/16 01:34:28;;;;;;;16.23;10.18;;;11.50;99.90;;;;;;5094117;28;20062;-67
2022/11/16 01:36:53;;;;;;;15.13;10.07;;;11.60;99.90;;;;;;5094132;28;20036;-67
2022/11/16 01:39:19;;;;;;;15.70;10.23;;;11.50;99.90;;;;;;5082945;28;20118;-67
2022/11/16 01:41:45;;;;;;;13.95;9.82;;;11.60;99.90;;;;;;5088715;28;20044;-67
2022/11/16 01:44:13;;;;;;;18.15;9.70;;;11.50;99.90;;;;;;5094078;28;20254;-67
2022/11/16 01:46:39;;;;;;;15.65;9.88;;;11.50;99.90;;;;;;5080440;28;20048;-67
2022/11/16 01:49:12;;;;;;;16.52;10.23;;;11.60;99.90;;;;;;5091914;28;20090;-67
2022/11/16 01:51:41;;;;;;;16.15;10.20;;;11.60;99.90;;;;;;5093104;28;20071;-67
2022/11/16 01:54:09;;;;;;;17.13;10.05;;;11.60;99.90;;;;;;5083048;28;20028;-66
2022/11/16 01:56:37;;;;;;;19.52;9.85;;;11.60;99.90;;;;;;5090300;28;20044;-67
2022/11/16 01:59:04;;;;;;;11.85;8.85;;;11.60;99.90;;;;;;5093441;28;20040;-67
2022/11/16 02:01:29;;;;;;;14.95;9.82;;;11.60;99.90;;;;;;5085927;28;20116;-67
2022/11/16 02:03:55;;;;;;;15.50;9.43;;;11.60;99.90;;;;;;5089285;28;20115;-67
2022/11/16 02:06:41;;;;;;;14.10;9.60;;;11.60;99.90;;;;;;5093303;28;20123;-67
2022/11/16 02:12:24;;;;;;;15.25;9.63;;;11.50;99.90;;;;;;5081370;28;20113;-67
2022/11/16 02:15:22;;;;;;;12.80;9.43;;;11.60;99.90;;;;;;5092596;28;20123;-67
2022/11/16 02:18:21;;;;;;;14.95;9.30;;;11.60;99.90;;;;;;5070536;28;20101;-67
2022/11/16 02:21:01;;;;;;;14.00;9.15;;;11.60;99.90;;;;;;5081645;28;20494;-67
2022/11/16 02:23:41;;;;;;;15.45;9.95;;;11.50;99.90;;;;;;5086323;28;20036;-67
2022/11/16 02:26:24;;;;;;;12.15;9.10;;;11.50;99.90;;;;;;5088574;28;20048;-67
2022/11/16 02:29:09;;;;;;;14.68;9.13;;;11.60;99.90;;;;;;5080792;28;20043;-68
2022/11/16 02:31:42;;;;;;;12.82;8.73;;;11.50;99.90;;;;;;5086757;28;20044;-67
2022/11/16 02:34:11;;;;;;;12.85;8.77;;;11.50;99.90;;;;;;5087972;28;20418;-66
2022/11/16 02:36:40;;;;;;;14.90;9.05;;;11.50;99.90;;;;;;5077218;28;20039;-67
2022/11/16 02:39:13;;;;;;;13.70;9.10;;;11.50;99.90;;;;;;5090695;28;20040;-66
2022/11/16 02:41:42;;;;;;;14.57;9.38;;;11.50;99.90;;;;;;5092544;28;20062;-66
2022/11/16 02:44:14;;;;;;;12.93;9.02;;;11.50;99.90;;;;;;5087983;28;20043;-68
2022/11/16 02:46:45;;;;;;;13.85;8.60;;;11.50;99.90;;;;;;5087537;28;20412;-66
2022/11/16 02:49:16;;;;;;;13.93;8.90;;;11.50;99.90;;;;;;5092637;28;20040;-65
2022/11/16 02:51:42;;;;;;;14.13;8.75;;;11.50;99.90;;;;;;5087557;28;20529;-66
2022/11/16 02:54:19;;;;;;;14.95;8.57;;;11.50;99.90;;;;;;5076308;28;20048;-67
2022/11/16 02:57:03;;;;;;;15.55;9.30;;;11.50;99.90;;;;;;5092095;28;20444;-65
2022/11/16 02:59:38;;;;;;;12.07;8.80;;;11.50;99.90;;;;;;5084713;28;20067;-66
2022/11/16 03:02:28;;;;;;;13.57;9.07;;;11.50;99.90;;;;;;5087907;28;20044;-66
2022/11/16 03:05:08;;;;;;;13.23;8.80;;;11.40;99.90;;;;;;5092598;28;20122;-66
2022/11/16 03:07:42;;;;;;;15.48;9.02;;;11.40;99.90;;;;;;5090559;28;20043;-66
2022/11/16 03:10:09;;;;;;;14.63;9.43;;;11.40;99.90;;;;;;5083677;28;20523;-65
2022/11/16 03:12:37;;;;;;;15.13;9.63;;;11.40;99.90;;;;;;5091755;28;20032;-65
2022/11/16 03:15:05;;;;;;;15.75;9.60;;;11.40;99.90;;;;;;5090779;28;20047;-65
2022/11/16 03:17:47;;;;;;;15.23;9.50;;;11.40;99.90;;;;;;5088992;28;20406;-65
2022/11/16 03:20:19;;;;;;;13.30;9.52;;;11.40;99.90;;;;;;5090617;28;20493;-65
2022/11/16 03:22:47;;;;;;;17.33;10.32;;;11.40;99.90;;;;;;5091676;28;20040;-65
2022/11/16 03:25:16;;;;;;;14.65;9.80;;;11.40;99.90;;;;;;5082752;28;20465;-66
2022/11/16 03:27:53;;;;;;;16.55;10.65;;;11.40;99.90;;;;;;5082137;28;20036;-65
2022/11/16 03:30:22;;;;;;;17.40;10.65;;;11.40;99.90;;;;;;5083990;28;20036;-65
2022/11/16 03:33:11;;;;;;;15.60;10.45;;;11.40;99.90;;;;;;5091560;28;20086;-65
2022/11/16 03:35:55;;;;;;;21.02;10.55;;;11.30;99.90;;;;;;5087457;28;20032;-66
2022/11/16 03:38:23;;;;;;;19.83;11.43;;;11.30;99.90;;;;;;5088014;28;20499;-66
2022/11/16 03:40:50;;;;;;;16.67;11.15;;;11.30;99.90;;;;;;5091582;28;20041;-66
2022/11/16 03:43:18;;;;;;;19.30;11.32;;;11.30;99.90;;;;;;5070501;28;20043;-65
2022/11/16 03:45:45;;;;;;;22.58;12.23;;;11.30;99.90;;;;;;5086817;28;20064;-65
2022/11/16 03:48:11;;;;;;;19.40;12.45;;;11.20;99.90;;;;;;5091415;28;20036;-65
2022/11/16 03:50:38;;;;;;;18.67;12.13;;;11.20;99.90;;;;;;5087745;28;20549;-63
2022/11/16 03:53:03;;;;;;;22.30;12.80;;;11.20;99.90;;;;;;5078773;28;20064;-67
2022/11/16 03:55:29;;;;;;;19.83;12.05;;;11.20;99.90;;;;;;5091348;28;20552;-67
2022/11/16 03:57:55;;;;;;;19.02;11.85;;;11.10;99.90;;;;;;5088113;28;20043;-67
2022/11/16 04:00:20;;;;;;;18.98;12.45;;;11.10;99.90;;;;;;5086278;28;20118;-66
2022/11/16 04:02:46;;;;;;;21.30;12.85;;;11.10;99.90;;;;;;5090668;28;20064;-67
2022/11/16 04:24:38;;;;;;;19.95;13.13;;;11.10;99.90;;;;;;5079300;28;20055;-66
2022/11/16 04:29:54;;;;;;;20.38;11.95;;;11.10;99.90;;;;;;5078599;28;20048;-65
2022/11/16 04:37:48;;;;;;;21.80;12.68;;;11.10;99.90;;;;;;5093059;28;20086;-67
2022/11/16 04:40:15;;;;;;;20.23;12.70;;;11.00;99.90;;;;;;5095013;28;20040;-66
2022/11/16 04:42:41;;;;;;;22.20;12.98;;;11.00;99.90;;;;;;5088427;28;20048;-66
2022/11/16 04:47:51;;;;;;;19.88;13.07;;;11.00;99.90;;;;;;5092069;28;20192;-66
2022/11/16 04:50:18;;;;;;;22.00;13.75;;;11.10;99.90;;;;;;5093754;28;20040;-66
2022/11/16 04:52:44;;;;;;;20.02;12.48;;;11.10;99.90;;;;;;5093968;28;20036;-66
2022/11/16 04:55:11;;;;;;;20.48;13.68;;;11.10;99.90;;;;;;5095146;28;20551;-66
2022/11/16 04:57:37;;;;;;;21.27;13.48;;;11.10;99.90;;;;;;5087889;28;20047;-64
2022/11/16 05:00:05;;;;;;;21.20;13.68;;;11.10;99.90;;;;;;5077129;28;20024;-66
2022/11/16 05:02:30;;;;;;;23.27;14.43;;;11.10;99.90;;;;;;5094358;28;20127;-65
2022/11/16 05:04:56;;;;;;;21.13;13.93;;;11.10;99.90;;;;;;5089454;28;20545;-64
2022/11/16 05:07:21;;;;;;;20.55;14.23;;;11.10;99.90;;;;;;5083940;28;20086;-66
2022/11/16 05:09:48;;;;;;;20.88;14.10;;;11.10;99.90;;;;;;5094688;28;20035;-65
2022/11/16 05:12:20;;;;;;;21.98;13.93;;;11.10;99.90;;;;;;5092795;28;20076;-67
2022/11/16 05:14:45;;;;;;;21.42;14.18;;;11.10;99.90;;;;;;5083033;28;20032;-68
2022/11/16 05:17:12;;;;;;;25.48;15.48;;;11.10;99.90;;;;;;5093089;28;20579;-64
2022/11/16 05:22:22;;;;;;;22.30;14.48;;;11.10;99.90;;;;;;5076735;28;20153;-65
2022/11/16 05:24:48;;;;;;;24.48;14.70;;;11.10;99.90;;;;;;5093867;28;20036;-65
2022/11/16 05:27:16;;;;;;;23.83;14.52;;;11.10;99.90;;;;;;5094210;28;20386;-65
2022/11/16 05:29:42;;;;;;;24.20;14.48;;;11.00;99.90;;;;;;5094359;28;20048;-65
2022/11/16 05:32:10;;;;;;;27.30;15.13;;;11.00;99.90;;;;;;5081346;28;20081;-65
2022/11/16 05:34:36;;;;;;;28.27;15.35;;;11.10;99.90;;;;;;5093651;28;20032;-65
2022/11/16 05:37:02;;;;;;;27.85;15.85;;;11.10;99.90;;;;;;5094314;28;20047;-67
2022/11/16 05:39:27;;;;;;;27.17;14.93;;;11.10;99.90;;;;;;5084615;28;20474;-67
2022/11/16 05:41:53;;;;;;;24.23;15.10;;;11.00;99.90;;;;;;5092992;28;20032;-66
2022/11/16 05:44:19;;;;;;;24.83;15.80;;;11.00;99.90;;;;;;5094115;28;20115;-66
2022/11/16 05:46:45;;;;;;;24.00;15.05;;;11.00;99.90;;;;;;5094104;28;20051;-66
2022/11/16 05:49:11;;;;;;;28.35;16.25;;;11.00;99.90;;;;;;5079509;28;20401;-66
2022/11/16 05:51:39;;;;;;;25.83;15.55;;;11.00;99.90;;;;;;5092798;28;20071;-66
2022/11/16 05:54:06;;;;;;;28.75;15.88;;;11.00;99.90;;;;;;5093492;28;20405;-66
2022/11/16 05:56:33;;;;;;;28.05;16.88;;;11.00;99.90;;;;;;5078879;28;20132;-67
2022/11/16 05:58:59;;;;;;;26.33;15.35;;;11.00;99.90;;;;;;5090602;28;20032;-66
2022/11/16 06:01:25;;;;;;;28.58;16.08;;;11.10;99.90;;;;;;5093305;28;20047;-66
2022/11/16 06:06:19;;;;;;;31.35;16.67;;;11.10;99.90;;;;;;5051625;28;20482;-63
2022/11/16 06:08:45;;;;;;;27.48;17.15;;;11.10;99.90;;;;;;5068651;28;20044;-65
2022/11/16 06:11:11;;;;;;;29.17;16.42;;;11.10;99.90;;;;;;5069400;28;20044;-65
2022/11/16 06:13:37;;;;;;;27.70;16.88;;;11.10;99.90;;;;;;5062279;28;20044;-63
2022/11/16 06:16:04;;;;;;;27.98;17.05;;;11.20;99.90;;;;;;5067094;28;20074;-64
2022/11/16 06:18:30;;;;;;;28.50;16.38;;;11.10;99.90;;;;;;5069890;28;20076;-64
2022/11/16 06:20:56;;;;;;;30.65;17.40;;;11.20;99.90;;;;;;5061266;28;20876;-64
2022/11/16 06:23:22;;;;;;;34.25;18.00;;;11.20;99.90;;;;;;5058852;28;20036;-64
2022/11/16 06:25:53;;;;;;;30.63;17.77;;;11.20;99.90;;;;;;5069231;28;20044;-65
2022/11/16 06:28:19;;;;;;;36.58;17.70;;;11.20;99.90;;;;;;5063843;28;20166;-64
2022/11/16 06:30:46;;;;;;;28.40;15.98;;;11.20;99.90;;;;;;5054956;28;20155;-65
2022/11/16 06:33:11;;;;;;;26.75;15.98;;;11.30;99.90;;;;;;5052250;28;20048;-65
2022/11/16 06:35:37;;;;;;;26.98;16.15;;;11.30;99.90;;;;;;5048616;28;20041;-65
2022/11/16 06:38:03;;;;;;;25.00;14.18;;;11.30;99.90;;;;;;5072264;28;20037;-64
2022/11/16 06:40:28;;;;;;;22.30;13.63;;;11.30;99.90;;;;;;5071688;28;20040;-65
2022/11/16 06:42:56;;;;;;;20.17;12.02;;;11.30;99.90;;;;;;5063302;28;20037;-62
2022/11/16 06:45:22;;;;;;;18.73;12.23;;;11.30;99.90;;;;;;5063511;28;20040;-65
2022/11/16 06:47:47;;;;;;;21.48;12.75;;;11.20;99.90;;;;;;5057177;28;20044;-64
2022/11/16 06:50:13;;;;;;;20.15;12.80;;;11.20;99.90;;;;;;5054665;28;20075;-65
2022/11/16 06:52:39;;;;;;;19.20;12.32;;;11.20;99.90;;;;;;5068087;28;20513;-65
2022/11/16 06:55:05;;;;;;;17.02;11.63;;;11.30;99.90;;;;;;5060923;28;20044;-65
2022/11/16 06:57:34;;;;;;;19.08;12.18;;;11.20;99.90;;;;;;5059947;28;20033;-65
2022/11/16 06:59:59;;;;;;;19.98;12.70;;;11.20;99.90;;;;;;5046093;28;20406;-67
2022/11/16 07:02:25;;;;;;;21.70;10.55;;;11.20;99.90;;;;;;5053136;28;20041;-66
2022/11/16 07:04:51;;;;;;;15.43;9.73;;;11.20;99.90;;;;;;5057550;28;20194;-63
2022/11/16 07:07:16;;;;;;;14.82;10.27;;;11.20;99.90;;;;;;5068684;28;20055;-64
2022/11/16 07:09:43;;;;;;;15.43;10.35;;;11.20;99.90;;;;;;5066025;28;20052;-64
2022/11/16 07:12:09;;;;;;;16.42;10.65;;;11.20;99.90;;;;;;5051774;28;20043;-65
2022/11/16 07:14:34;;;;;;;17.23;11.75;;;11.10;99.90;;;;;;5069398;28;20036;-64
2022/11/16 07:17:00;;;;;;;19.73;12.70;;;11.20;99.90;;;;;;5071663;28;20167;-64
2022/11/16 07:19:25;;;;;;;21.08;13.20;;;11.20;99.90;;;;;;5063081;28;20402;-64
2022/11/16 07:21:51;;;;;;;20.10;13.38;;;11.10;99.90;;;;;;5070968;28;20037;-63
2022/11/16 07:24:16;;;;;;;19.15;12.90;;;11.10;99.90;;;;;;5071725;28;20044;-64
2022/11/16 07:26:42;;;;;;;22.00;13.77;;;11.10;99.90;;;;;;5068640;28;20032;-64
2022/11/16 07:29:08;;;;;;;21.60;14.05;;;11.10;99.90;;;;;;5067721;28;20510;-64
2022/11/16 07:31:33;;;;;;;22.42;14.60;;;11.10;99.90;;;;;;5071155;28;20098;-64
2022/11/16 07:33:59;;;;;;;21.83;14.35;;;11.10;99.90;;;;;;5071626;28;20040;-64
2022/11/16 07:36:24;;;;;;;24.27;15.27;;;11.10;99.90;;;;;;5040979;28;20048;-64
2022/11/16 07:38:50;;;;;;;25.77;15.65;;;11.20;99.90;;;;;;5067540;28;20064;-63
2022/11/16 07:41:17;;;;;;;26.90;16.48;;;11.20;99.90;;;;;;5071187;28;20404;-64
2022/11/16 07:43:43;;;;;;;28.50;15.63;;;11.20;99.90;;;;;;5071432;28;20398;-66
2022/11/16 07:46:11;;;;;;;26.80;15.77;;;11.20;99.90;;;;;;5057512;28;20048;-64
2022/11/16 07:48:37;;;;;;;27.13;15.80;;;11.20;99.90;;;;;;5066295;28;20078;-64
2022/11/16 07:51:05;;;;;;;26.80;16.05;;;11.20;99.90;;;;;;5068235;28;20450;-64
2022/11/16 07:53:32;;;;;;;26.48;16.05;;;11.10;99.90;;;;;;5056910;28;20483;-68
2022/11/16 07:55:58;;;;;;;30.42;17.08;;;11.10;99.90;;;;;;5058181;28;20041;-66
2022/11/16 07:58:25;;;;;;;30.55;17.23;;;11.10;99.90;;;;;;5070846;28;20664;-66
2022/11/16 08:00:51;;;;;;;28.48;16.05;;;11.10;99.90;;;;;;5071503;28;20040;-64
2022/11/16 08:03:16;;;;;;;30.20;16.80;;;11.10;99.90;;;;;;5050133;28;20367;-66
2022/11/16 08:05:43;;;;;;;28.42;17.25;;;11.10;99.90;;;;;;5067915;28;20102;-66
2022/11/16 08:08:10;;;;;;;28.05;16.45;;;11.10;99.90;;;;;;5065516;28;20037;-66
2022/11/16 08:10:35;;;;;;;31.50;17.73;;;11.10;99.90;;;;;;5066612;28;20044;-66
2022/11/16 08:13:01;;;;;;;28.42;17.02;;;11.10;99.90;;;;;;5073636;28;20489;-66
2022/11/16 08:15:27;;;;;;;26.08;16.35;;;11.10;99.90;;;;;;5075651;28;20044;-66
2022/11/16 08:17:52;;;;;;;29.52;16.50;;;11.10;99.90;;;;;;5068897;28;20055;-64
2022/11/16 08:20:18;;;;;;;28.95;16.40;;;11.20;99.90;;;;;;5063916;28;20032;-64
2022/11/16 08:22:48;;;;;;;27.58;16.17;;;11.20;99.90;;;;;;5074088;28;20474;-67
2022/11/16 08:25:14;;;;;;;30.50;16.83;;;11.20;99.90;;;;;;5061514;28;20062;-65
2022/11/16 08:27:40;;;;;;;28.48;16.88;;;11.20;99.90;;;;;;5063442;28;20049;-65
2022/11/16 08:30:08;;;;;;;30.17;16.38;;;11.20;99.90;;;;;;5072955;28;20448;-65
2022/11/16 08:32:35;;;;;;;29.23;16.60;;;11.20;99.90;;;;;;5074942;28;20036;-65
2022/11/16 08:35:00;;;;;;;27.95;17.02;;;11.30;99.90;;;;;;5054362;28;20032;-66
2022/11/16 08:37:27;;;;;;;32.67;17.58;;;11.30;99.90;;;;;;5073993;28;20379;-65
2022/11/16 08:39:53;;;;;;;27.75;17.52;;;11.30;99.90;;;;;;5073443;28;20041;-65
2022/11/16 08:42:19;;;;;;;35.33;18.45;;;11.40;99.90;;;;;;5060342;28;20059;-65
2022/11/16 08:44:45;;;;;;;34.50;17.90;;;11.40;99.90;;;;;;5048280;28;20040;-65
2022/11/16 08:47:11;;;;;;;32.38;17.13;;;11.50;99.90;;;;;;5063603;28;20064;-65
2022/11/16 08:49:36;;;;;;;32.40;17.60;;;11.50;99.90;;;;;;5072614;28;20115;-65
2022/11/16 08:52:02;;;;;;;34.78;18.02;;;11.60;99.90;;;;;;5067681;28;20127;-63
2022/11/16 08:54:28;;;;;;;32.00;17.73;;;11.70;99.90;;;;;;5065215;28;20036;-63
2022/11/16 08:56:54;;;;;;;31.80;17.63;;;11.70;99.90;;;;;;5071840;28;20052;-63
2022/11/16 08:59:19;;;;;;;32.38;16.92;;;11.90;99.90;;;;;;5059263;28;20028;-63
2022/11/16 09:01:45;;;;;;;30.30;17.13;;;12.00;99.90;;;;;;5072915;28;20068;-63
2022/11/16 09:04:11;;;;;;;29.77;16.70;;;12.10;99.90;;;;;;5073600;28;20036;-65
2022/11/16 09:06:36;;;;;;;30.83;15.75;;;12.20;99.90;;;;;;5071420;28;20040;-66
2022/11/16 09:09:03;;;;;;;27.40;15.43;;;12.20;99.90;;;;;;5059630;28;20506;-63
2022/11/16 09:11:28;;;;;;;24.05;14.38;;;12.20;99.90;;;;;;5057461;28;20033;-63
2022/11/16 09:13:55;;;;;;;25.85;14.45;;;12.20;99.90;;;;;;5058223;28;20479;-63
2022/11/16 09:16:22;;;;;;;25.95;14.30;;;12.10;99.90;;;;;;5065629;28;20502;-63
2022/11/16 09:18:49;;;;;;;23.35;13.40;;;12.20;99.90;;;;;;5060930;28;20036;-63
2022/11/16 09:21:20;;;;;;;22.42;13.75;;;12.20;99.90;;;;;;5071544;28;20060;-63
2022/11/16 09:23:47;;;;;;;24.35;13.90;;;12.30;99.90;;;;;;5055812;28;20055;-63
2022/11/16 09:26:13;;;;;;;24.95;13.00;;;12.40;99.90;;;;;;5072965;28;20506;-63
2022/11/16 09:28:39;;;;;;;26.25;13.27;;;12.40;99.90;;;;;;5068351;28;20036;-63
2022/11/16 09:31:05;;;;;;;18.88;11.20;;;12.40;99.90;;;;;;5069985;28;20084;-63
2022/11/16 09:33:32;;;;;;;21.90;12.63;;;12.30;99.90;;;;;;5065275;28;20388;-63
2022/11/16 09:36:06;;;;;;;21.92;12.18;;;12.40;99.90;;;;;;5065378;28;20151;-63
2022/11/16 09:38:34;;;;;;;21.73;12.25;;;12.40;99.90;;;;;;5072192;28;20037;-63
2022/11/16 09:41:24;;;;;;;20.33;11.75;;;12.40;99.90;;;;;;5073488;28;20040;-63
2022/11/16 09:44:06;;;;;;;21.37;11.73;;;12.40;99.90;;;;;;5066402;28;20045;-63
2022/11/16 09:46:35;;;;;;;19.88;11.63;;;12.40;99.90;;;;;;5071851;28;20483;-63
2022/11/16 09:49:12;;;;;;;17.63;11.15;;;12.40;99.90;;;;;;5044660;28;20056;-65
2022/11/16 09:51:40;;;;;;;16.88;12.25;;;12.40;99.90;;;;;;5071386;28;20417;-66
2022/11/16 09:54:20;;;;;;;19.13;10.95;;;12.50;99.90;;;;;;5070158;28;20045;-65
2022/11/16 09:56:50;;;;;;;16.83;10.82;;;12.40;99.90;;;;;;5067526;28;20119;-65
2022/11/16 09:59:39;;;;;;;18.42;11.40;;;12.30;99.90;;;;;;5062529;28;20103;-65
2022/11/16 10:02:25;;;;;;;15.00;10.15;;;12.30;99.90;;;;;;5071307;28;20055;-65
2022/11/16 10:05:18;;;;;;;20.15;10.68;;;12.30;99.90;;;;;;5061290;28;20071;-65
2022/11/16 10:07:47;;;;;;;17.23;10.40;;;12.40;99.90;;;;;;5063401;28;20143;-65
2022/11/16 10:10:15;;;;;;;16.27;9.15;;;12.50;99.90;;;;;;5072874;28;20075;-66
2022/11/16 10:12:50;;;;;;;16.27;8.30;;;12.60;99.90;;;;;;5063586;28;20047;-65
2022/11/16 10:15:41;;;;;;;16.73;8.35;;;12.60;99.90;;;;;;5072199;28;20037;-65
2022/11/16 10:18:37;;;;;;;12.07;7.68;;;12.50;99.90;;;;;;5073110;28;20072;-65
2022/11/16 10:21:22;;;;;;;13.75;7.90;;;12.50;99.90;;;;;;5069687;28;20483;-65
2022/11/16 10:23:48;;;;;;;11.98;7.43;;;12.50;99.90;;;;;;5055309;28;20072;-65
2022/11/16 10:26:26;;;;;;;11.13;6.65;;;12.60;99.90;;;;;;5071729;28;20048;-65
2022/11/16 10:29:09;;;;;;;10.15;6.90;;;12.60;99.90;;;;;;5068944;28;20510;-65
2022/11/16 10:31:40;;;;;;;13.63;6.03;;;12.60;99.90;;;;;;5064882;28;20052;-65
2022/11/16 10:34:14;;;;;;;9.98;6.50;;;12.80;99.90;;;;;;5071965;28;20526;-66
2022/11/16 10:36:40;;;;;;;11.02;6.43;;;12.90;99.90;;;;;;5071036;28;20041;-66
2022/11/16 10:39:12;;;;;;;12.63;6.15;;;12.80;99.90;;;;;;5038236;28;20099;-66
2022/11/16 10:41:49;;;;;;;9.82;5.60;;;12.70;99.90;;;;;;5071111;28;20521;-66
2022/11/16 10:44:58;;;;;;;11.07;5.85;;;12.40;99.90;;;;;;5072701;28;20036;-66
2022/11/16 10:47:34;;;;;;;10.00;5.80;;;12.30;99.90;;;;;;5024042;28;20410;-66
2022/11/16 10:50:03;;;;;;;13.15;5.72;;;12.40;99.90;;;;;;5071531;28;20560;-66
2022/11/16 10:52:29;;;;;;;12.77;6.15;;;12.50;99.90;;;;;;5071719;28;20032;-66
2022/11/16 10:54:54;;;;;;;11.18;5.68;;;12.50;99.90;;;;;;5064850;28;20044;-66
2022/11/16 10:57:22;;;;;;;11.43;6.07;;;12.40;99.90;;;;;;5063506;28;20562;-64
2022/11/16 10:59:54;;;;;;;11.75;5.88;;;12.30;99.90;;;;;;5072223;28;20091;-64
2022/11/16 11:02:35;;;;;;;10.15;5.00;;;12.30;99.90;;;;;;5072298;28;20047;-64
2022/11/16 11:05:01;;;;;;;8.13;5.20;;;12.20;99.90;;;;;;5063342;28;20048;-64
2022/11/16 11:07:32;;;;;;;9.85;5.60;;;12.10;99.90;;;;;;5066499;28;20036;-64
2022/11/16 11:09:58;;;;;;;8.25;5.47;;;12.00;99.90;;;;;;5062716;28;20044;-64
2022/11/16 11:12:37;;;;;;;13.77;5.50;;;12.20;99.90;;;;;;5054209;28;20082;-64
2022/11/16 11:15:25;;;;;;;10.65;5.50;;;12.20;99.90;;;;;;5064826;28;20036;-64
2022/11/16 11:18:09;;;;;;;13.07;5.97;;;12.20;99.90;;;;;;5071635;28;20036;-64
2022/11/16 11:20:35;;;;;;;10.48;5.88;;;12.40;99.90;;;;;;5066610;28;20058;-64
2022/11/16 11:23:16;;;;;;;9.27;5.32;;;12.40;99.90;;;;;;5060346;28;20032;-64
2022/11/16 11:25:58;;;;;;;11.80;5.13;;;12.50;99.90;;;;;;5067609;28;20565;-64
2022/11/16 11:28:28;;;;;;;10.73;4.55;;;12.60;99.90;;;;;;5047340;28;20406;-64
2022/11/16 11:31:00;;;;;;;11.73;5.15;;;12.60;99.90;;;;;;5066137;28;20040;-64
2022/11/16 11:33:29;;;;;;;11.00;5.20;;;12.70;99.90;;;;;;5054460;28;20044;-64
2022/11/16 11:36:29;;;;;;;10.20;4.72;;;12.70;99.90;;;;;;5069625;28;20076;-64
2022/11/16 11:39:04;;;;;;;10.88;5.15;;;12.60;99.90;;;;;;5014186;28;20495;-64
2022/11/16 11:41:41;;;;;;;9.85;4.70;;;12.40;99.90;;;;;;5066271;28;20040;-64
2022/11/16 11:44:16;;;;;;;10.95;4.03;;;12.50;99.90;;;;;;5066441;28;20040;-64
2022/11/16 11:46:55;;;;;;;9.13;3.67;;;12.60;99.90;;;;;;5064741;28;20055;-65
2022/11/16 11:49:30;;;;;;;14.80;3.70;;;12.70;99.90;;;;;;5070138;28;20402;-64
2022/11/16 11:52:02;;;;;;;7.93;3.38;;;12.70;99.90;;;;;;5071179;28;20037;-64
2022/11/16 11:54:49;;;;;;;12.43;3.63;;;12.70;99.90;;;;;;5067571;28;20033;-65
2022/11/16 11:57:20;;;;;;;11.02;4.30;;;12.60;99.90;;;;;;5069803;28;20036;-64
2022/11/16 11:59:47;;;;;;;12.40;4.50;;;12.60;99.90;;;;;;5070878;28;20029;-64
2022/11/16 12:02:55;;;;;;;9.90;3.92;;;12.60;99.90;;;;;;5061000;28;20098;-64
2022/11/16 12:05:52;;;;;;;8.13;3.58;;;12.50;99.90;;;;;;5070584;22;20048;-65
2022/11/16 12:08:49;;;;;;;11.30;3.97;;;12.40;99.90;;;;;;5052355;28;20119;-65
2022/11/16 12:11:40;;;;;;;11.45;4.50;;;12.40;99.90;;;;;;5051141;28;20056;-65
2022/11/16 12:14:31;;;;;;;13.48;4.60;;;12.50;99.90;;;;;;5066662;28;20051;-65
2022/11/16 12:17:06;;;;;;;8.70;3.97;;;12.60;99.90;;;;;;5049301;28;20041;-66
2022/11/16 12:19:44;;;;;;;12.60;4.30;;;12.70;99.90;;;;;;5038071;28;20075;-66
2022/11/16 12:22:23;;;;;;;10.00;4.30;;;12.80;99.90;;;;;;5048037;28;20037;-66
2022/11/16 12:24:57;;;;;;;13.00;4.68;;;12.80;99.90;;;;;;5049093;28;20041;-65
2022/11/16 12:27:41;;;;;;;12.38;4.63;;;12.80;99.90;;;;;;5046409;28;20048;-66
2022/11/16 12:30:20;;;;;;;13.63;4.63;;;12.80;99.90;;;;;;5038679;28;20049;-65
2022/11/16 12:33:10;;;;;;;12.65;3.92;;;12.90;99.90;;;;;;5050558;28;20041;-66
2022/11/16 12:36:03;;;;;;;13.98;4.32;;;12.80;99.90;;;;;;5041433;28;20120;-65
2022/11/16 12:38:49;;;;;;;7.30;3.60;;;12.80;99.90;;;;;;5043324;28;20495;-65
2022/11/16 12:41:33;;;;;;;11.70;3.88;;;12.80;99.90;;;;;;5040485;28;20037;-65
2022/11/16 12:44:19;;;;;;;12.98;3.63;;;12.80;99.90;;;;;;5047799;28;20119;-66
2022/11/16 12:47:11;;;;;;;15.50;3.70;;;12.80;99.90;;;;;;5050424;28;20098;-65
2022/11/16 12:49:56;;;;;;;10.88;3.75;;;12.70;99.90;;;;;;5047320;28;20053;-65
2022/11/16 12:52:25;;;;;;;12.77;3.67;;;12.70;99.90;;;;;;5042191;28;20033;-65
2022/11/16 12:55:10;;;;;;;12.13;3.53;;;12.70;99.90;;;;;;5044664;28;20143;-66
2022/11/16 12:57:38;;;;;;;14.10;3.33;;;12.60;99.90;;;;;;5051330;28;20043;-65
2022/11/16 13:00:17;;;;;;;8.05;3.28;;;12.50;99.90;;;;;;5049680;28;20043;-65
2022/11/16 13:03:10;;;;;;;15.18;3.67;;;12.50;99.90;;;;;;5053725;28;21276;-65
2022/11/16 13:06:06;;;;;;;9.05;4.00;;;12.50;99.90;;;;;;5054390;28;20503;-65
2022/11/16 13:08:41;;;;;;;10.70;3.30;;;12.50;99.90;;;;;;5047429;28;20040;-65
2022/11/16 13:11:27;;;;;;;10.57;3.33;;;12.50;99.90;;;;;;5052364;28;20045;-65
2022/11/16 13:14:00;;;;;;;10.93;3.05;;;12.50;99.90;;;;;;5043487;28;20049;-65
2022/11/16 13:16:27;;;;;;;10.93;3.13;;;12.50;99.90;;;;;;5054562;28;20052;-66
2022/11/16 13:18:54;;;;;;;14.00;3.33;;;12.50;99.90;;;;;;5044561;28;20564;-67
2022/11/16 13:21:32;;;;;;;17.10;3.40;;;12.40;99.90;;;;;;5045293;28;20037;-66
2022/11/16 13:24:20;;;;;;;12.50;3.08;;;12.30;99.90;;;;;;5054190;28;20384;-66
2022/11/16 13:27:30;;;;;;;11.40;3.38;;;12.20;99.90;;;;;;5040041;28;20045;-66
2022/11/16 13:30:03;;;;;;;14.45;3.60;;;12.20;99.90;;;;;;5050869;28;20541;-67
2022/11/16 13:32:40;;;;;;;11.35;3.50;;;12.30;99.90;;;;;;5053841;28;20076;-66